createdAt,value
2023-01-05T00:04:57.029Z,101673.56
2023-01-05T00:10:00.036Z,101674.31
2023-01-05T00:15:20.527Z,101678.41
2023-01-05T00:20:42.406Z,101688.16
2023-01-05T00:25:45.383Z,101692.56
2023-01-05T00:30:51.705Z,101684.44
2023-01-05T00:35:56.117Z,101689.78
2023-01-05T00:40:59.138Z,101681.66
2023-01-05T00:46:02.496Z,101686.72
2023-01-05T00:51:07.401Z,101688.94
2023-01-05T00:56:10.389Z,101688.94
2023-01-05T01:01:14.465Z,101696.81
2023-01-05T01:06:21.206Z,101696.53
2023-01-05T01:11:24.218Z,101696.28
2023-01-05T01:16:27.393Z,101713.72
2023-01-05T01:21:31.864Z,101709.63
2023-01-05T01:26:35.310Z,101718.22
2023-01-05T01:31:38.364Z,101728.72
2023-01-05T01:36:43.197Z,101723.47
2023-01-05T01:41:46.932Z,101741.03
2023-01-05T01:46:50.243Z,101756.56
2023-01-05T01:51:54.691Z,101746.44
2023-01-05T01:57:00.423Z,101742.66
2023-01-05T02:02:03.631Z,101752.41
2023-01-05T02:07:13.487Z,101764.78
2023-01-05T02:12:30.943Z,101759.00
2023-01-05T02:17:44.014Z,101769.56
2023-01-05T02:23:32.935Z,101758.72
2023-01-05T02:28:54.836Z,101759.25
2023-01-05T02:34:16.742Z,101755.47
2023-01-05T02:39:25.613Z,101756.38
2023-01-05T02:44:31.512Z,101761.44
2023-01-05T02:49:41.850Z,101767.34
2023-01-05T02:54:50.342Z,101758.66
2023-01-05T02:59:55.943Z,101760.78
2023-01-05T03:05:06.982Z,101760.91
2023-01-05T03:10:26.195Z,101765.91
2023-01-05T03:15:33.524Z,101767.72
2023-01-05T03:20:43.334Z,101767.34
2023-01-05T03:26:05.301Z,101781.50
2023-01-05T03:31:32.825Z,101774.06
2023-01-05T03:36:45.262Z,101782.38
2023-01-05T03:41:49.895Z,101796.47
2023-01-05T03:46:54.767Z,101790.84
2023-01-05T03:51:59.325Z,101796.44
2023-01-05T03:57:03.232Z,101792.25
2023-01-05T04:02:06.491Z,101797.66
2023-01-05T04:07:11.207Z,101794.59
2023-01-05T04:12:14.402Z,101790.97
2023-01-05T04:17:20.018Z,101800.81
2023-01-05T04:22:27.526Z,101809.03
2023-01-05T04:27:31.791Z,101799.34
2023-01-05T04:32:34.836Z,101797.69
2023-01-05T04:37:40.213Z,101797.81
2023-01-05T04:42:44.516Z,101791.47
2023-01-05T04:47:48.796Z,101797.44
2023-01-05T04:52:56.356Z,101806.22
2023-01-05T04:57:59.770Z,101809.84
2023-01-05T05:03:03.232Z,101812.63
2023-01-05T05:08:10.094Z,101812.75
2023-01-05T05:13:13.438Z,101819.03
2023-01-05T05:18:16.574Z,101828.72
2023-01-05T05:23:21.833Z,101833.31
2023-01-05T05:28:28.397Z,101836.09
2023-01-05T05:33:31.591Z,101836.09
2023-01-05T05:38:35.939Z,101844.81
2023-01-05T05:43:38.942Z,101855.31
2023-01-05T05:48:41.891Z,101872.03
2023-01-05T05:53:47.594Z,101889.78
2023-01-05T05:58:53.599Z,101872.47
2023-01-05T06:03:59.040Z,101880.44
2023-01-05T06:09:03.411Z,101886.31
2023-01-05T06:14:06.515Z,101893.47
2023-01-05T06:19:10.756Z,101889.03
2023-01-05T06:24:15.791Z,101898.97
2023-01-05T06:29:21.955Z,101898.81
2023-01-05T06:34:24.911Z,101910.22
2023-01-05T06:39:29.338Z,101921.69
2023-01-05T06:44:32.660Z,101936.38
2023-01-05T06:49:38.495Z,101927.69
2023-01-05T06:54:42.841Z,101927.69
2023-01-05T06:59:45.972Z,101941.63
2023-01-05T07:04:51.475Z,101942.41
2023-01-05T07:09:55.879Z,101944.25
2023-01-05T07:14:58.960Z,101953.84
2023-01-05T07:20:01.895Z,101953.94
2023-01-05T07:25:06.928Z,101957.19
2023-01-05T07:30:11.448Z,101959.75
2023-01-05T07:35:14.419Z,101960.66
2023-01-05T07:40:19.970Z,101955.06
2023-01-05T07:45:23.018Z,101962.91
2023-01-05T07:50:26.085Z,101966.34
2023-01-05T07:55:30.440Z,101982.75
2023-01-05T08:00:33.615Z,101981.13
2023-01-05T08:05:36.901Z,101995.16
2023-01-05T08:10:42.643Z,102002.13
2023-01-05T08:15:50.774Z,102006.69
2023-01-05T08:20:55.454Z,102006.09
2023-01-05T08:26:05.946Z,102003.09
2023-01-05T08:31:12.347Z,102015.13
2023-01-05T08:36:20.551Z,102020.75
2023-01-05T08:41:28.132Z,102032.75
2023-01-05T08:46:33.115Z,102039.28
2023-01-05T08:51:36.883Z,102036.72
2023-01-05T08:56:42.888Z,102047.78
2023-01-05T09:01:47.492Z,102060.91
2023-01-05T09:06:50.962Z,102050.31
2023-01-05T09:11:55.383Z,102065.34
2023-01-05T09:17:07.038Z,102065.84
2023-01-05T09:22:10.710Z,102071.38
2023-01-05T09:27:15.280Z,102073.53
2023-01-05T09:32:20.833Z,102078.22
2023-01-05T09:37:23.829Z,102088.84
2023-01-05T09:42:32.423Z,102088.34
2023-01-05T09:47:39.732Z,102092.97
2023-01-05T09:52:42.776Z,102096.81
2023-01-05T09:57:55.327Z,102108.66
2023-01-05T10:03:02.419Z,102107.91
2023-01-05T10:08:08.779Z,102115.47
2023-01-05T10:13:25.812Z,102125.78
2023-01-05T10:18:31.060Z,102128.84
2023-01-05T10:23:50.679Z,102118.91
2023-01-05T10:29:02.391Z,102124.19
2023-01-05T10:34:16.615Z,102125.13
2023-01-05T10:39:27.949Z,102128.91
2023-01-05T10:44:52.967Z,102132.13
2023-01-05T10:49:56.075Z,102132.88
2023-01-05T10:55:01.481Z,102124.50
2023-01-05T11:00:12.480Z,102127.53
2023-01-05T11:05:31.680Z,102141.50
2023-01-05T11:10:37.136Z,102135.84
2023-01-05T11:15:45.263Z,102135.91
2023-01-05T11:21:05.734Z,102125.66
2023-01-05T11:26:28.237Z,102124.16
2023-01-05T11:31:36.897Z,102120.56
2023-01-05T11:36:41.780Z,102108.22
2023-01-05T11:41:44.787Z,102106.66
2023-01-05T11:46:52.012Z,102101.88
2023-01-05T11:51:55.116Z,102095.06
2023-01-05T11:57:14.969Z,102099.97
2023-01-05T12:02:43.465Z,102093.72
2023-01-05T12:07:50.853Z,102107.31
2023-01-05T12:13:02.470Z,102103.41
2023-01-05T12:18:20.208Z,102105.38
2023-01-05T12:23:46.343Z,102112.91
2023-01-05T12:31:06.534Z,102102.72
2023-01-05T12:35:23.627Z,102087.59
2023-01-05T12:40:40.465Z,102092.09
2023-01-05T12:45:58.937Z,102101.38
2023-01-05T12:51:11.072Z,102095.38
2023-01-05T12:56:25.767Z,102090.69
2023-01-05T13:01:32.154Z,102092.47
2023-01-05T13:06:40.722Z,102094.00
2023-01-05T13:11:48.906Z,102099.31
2023-01-05T13:16:58.545Z,102094.69
2023-01-05T13:22:06.020Z,102083.09
2023-01-05T13:27:11.471Z,102075.50
2023-01-05T13:38:02.944Z,102085.34
2023-01-05T13:43:34.507Z,102083.56
2023-01-05T13:49:04.540Z,102081.25
2023-01-05T13:54:17.248Z,102073.03
2023-01-05T13:59:39.807Z,102074.56
2023-01-05T14:04:48.032Z,102074.81
2023-01-05T14:09:56.133Z,102078.78
2023-01-05T14:15:02.308Z,102076.38
2023-01-05T14:20:30.630Z,102073.13
2023-01-05T14:25:53.826Z,102073.19
2023-01-05T14:31:36.323Z,102078.47
2023-01-05T14:36:43.541Z,102065.84
2023-01-05T14:41:59.173Z,102060.84
2023-01-05T14:47:03.484Z,102060.63
2023-01-05T14:52:18.466Z,102063.84
2023-01-05T14:57:36.671Z,102071.84
2023-01-05T15:02:53.331Z,102060.13
2023-01-05T15:08:09.113Z,102060.19
2023-01-05T15:13:37.923Z,102075.59
2023-01-05T15:19:11.733Z,102063.50
2023-01-05T15:24:56.618Z,102070.50
2023-01-05T15:30:31.577Z,102066.94
2023-01-05T15:35:40.451Z,102060.66
2023-01-05T15:40:44.154Z,102061.41
2023-01-05T15:45:53.626Z,102054.94
2023-01-05T15:50:59.434Z,102058.78
2023-01-05T15:56:03.227Z,102042.03
2023-01-05T16:01:14.367Z,102042.13
2023-01-05T16:06:23.235Z,102029.78
2023-01-05T16:11:31.996Z,102027.06
2023-01-05T16:16:55.565Z,102023.41
2023-01-05T16:22:02.481Z,102020.66
2023-01-05T16:27:07.257Z,102013.50
2023-01-05T16:32:40.518Z,102007.88
2023-01-05T16:37:43.592Z,101993.75
2023-01-05T16:42:51.018Z,101999.94
2023-01-05T16:47:57.573Z,101998.03
2023-01-05T16:53:05.656Z,102004.09
2023-01-05T16:58:36.293Z,101993.59
2023-01-05T17:03:41.473Z,101995.41
2023-01-05T17:08:44.776Z,102000.84
2023-01-05T17:13:53.439Z,102004.28
2023-01-05T17:19:00.717Z,101994.69
2023-01-05T17:24:10.945Z,101986.69
2023-01-05T17:29:21.536Z,101988.84
2023-01-05T17:34:28.533Z,101982.69
2023-01-05T17:44:35.698Z,101980.00
2023-01-05T17:49:40.063Z,101981.97
2023-01-05T17:54:44.298Z,101969.81
2023-01-05T17:59:49.305Z,101969.00
2023-01-05T18:04:53.909Z,101966.47
2023-01-05T18:09:56.984Z,101964.66
2023-01-05T18:15:00.500Z,101961.47
2023-01-05T18:20:06.026Z,101953.41
2023-01-05T18:25:12.506Z,101963.28
2023-01-05T18:30:18.294Z,101953.81
2023-01-05T18:35:24.063Z,101946.03
2023-01-05T18:40:28.819Z,101939.75
2023-01-05T18:45:39.194Z,101941.41
2023-01-05T18:50:51.229Z,101934.28
2023-01-05T18:55:56.771Z,101925.41
2023-01-05T19:01:00.818Z,101933.19
2023-01-05T19:06:07.937Z,101926.16
2023-01-05T19:11:14.979Z,101944.22
2023-01-05T19:16:23.607Z,101947.34
2023-01-05T19:21:31.609Z,101930.00
2023-01-05T19:26:40.563Z,101935.44
2023-01-05T19:31:44.437Z,101922.34
2023-01-05T19:36:51.788Z,101926.53
2023-01-05T19:41:55.207Z,101914.81
2023-01-05T19:46:58.505Z,101920.94
2023-01-05T19:52:04.060Z,101913.91
2023-01-05T19:57:10.215Z,101910.38
2023-01-05T20:02:15.820Z,101910.84
2023-01-05T20:07:23.237Z,101906.44
2023-01-05T20:12:26.380Z,101904.72
2023-01-05T20:17:29.620Z,101921.28
2023-01-05T20:22:41.683Z,101912.44
2023-01-05T20:27:49.261Z,101918.50
2023-01-05T20:32:52.314Z,101906.28
2023-01-05T20:37:56.902Z,101902.72
2023-01-05T20:42:59.906Z,101900.03
2023-01-05T20:48:03.385Z,101893.72
2023-01-05T20:53:13.035Z,101891.41
2023-01-05T20:58:16.019Z,101897.88
2023-01-05T21:03:22.123Z,101905.56
2023-01-05T21:08:26.776Z,101903.25
2023-01-05T21:13:33.141Z,101891.53
2023-01-05T21:18:36.391Z,101893.13
2023-01-05T21:23:52.322Z,101887.75
2023-01-05T21:28:56.433Z,101892.84
2023-01-05T21:33:59.669Z,101885.72
2023-01-05T21:39:07.332Z,101879.47
2023-01-05T21:44:11.987Z,101879.81
2023-01-05T21:49:16.197Z,101880.72
2023-01-05T21:54:38.951Z,101869.31
2023-01-05T21:59:43.508Z,101877.19
2023-01-05T22:04:46.923Z,101863.13
2023-01-05T22:09:51.300Z,101860.56
2023-01-05T22:14:54.312Z,101869.47
2023-01-05T22:19:57.369Z,101862.41
2023-01-05T22:25:01.879Z,101850.22
2023-01-05T22:30:05.787Z,101854.75
2023-01-05T22:35:09.171Z,101877.84
2023-01-05T22:40:14.377Z,101858.63
2023-01-05T22:45:20.312Z,101863.66
2023-01-05T22:50:23.373Z,101873.72
2023-01-05T22:55:27.868Z,101878.00
2023-01-05T23:00:30.903Z,101873.06
2023-01-05T23:05:34.108Z,101864.72
2023-01-05T23:10:38.542Z,101861.38
2023-01-05T23:15:41.499Z,101856.00
2023-01-05T23:20:44.479Z,101860.34
2023-01-05T23:25:52.614Z,101851.50
2023-01-05T23:30:57.434Z,101844.34
2023-01-05T23:36:00.566Z,101837.50
2023-01-05T23:41:08.213Z,101810.09
2023-01-05T23:46:13.089Z,101814.72
2023-01-05T23:51:17.265Z,101815.34
2023-01-05T23:56:23.219Z,101801.09
